DRI-NNSC Building Weather observations

Data are for 10 minute period ending at time listed.
 Day   Time   Solar   Ave.   Ave.  Ave.  Vector  Max.   Baro.   Total    
  of    of     Rad.   Air    Rel.  Wind   Wind   Wind  Press.  Precip.   
Year   Day            Temp.  Hum.  Speed  Dir.   Gust                    
2014   (PST)  Kw/m2    F      %     mph   deg.    mph    mb.     in.     
-------------------------------------------------------------------------
 110    0:00   0.00   48.8    20    8.8   330     14   852.1    0.00 
 110    0:10   0.00   48.7    20    9.3   323     18   852.0    0.00 
 110    0:20   0.00   48.1    21   11.9   319     17   851.9    0.00 
 110    0:30   0.00   47.2    22   11.6   325     18   852.0    0.00 
 110    0:40   0.00   47.1    22   11.2   338     18   852.1    0.00 
 110    0:50   0.00   47.0    22    9.6   335     18   852.1    0.00 
 110    1:00   0.00   47.8    21    9.4   333     17   852.1    0.00 
 110    1:10   0.00   48.7    21    9.9   336     16   852.2    0.00 
 110    1:20   0.00   48.7    22    9.9   328     18   852.2    0.00 
 110    1:30   0.00   48.0    22    8.5   334     15   852.2    0.00 
 110    1:40   0.00   46.5    24    9.5   337     15   852.2    0.00 
 110    1:50   0.00   46.5    24    7.6   340     14   852.3    0.00 
 110    2:00   0.00   46.9    25    8.9   347     16   852.5    0.00 
 110    2:10   0.00   48.1    24    9.2   356     15   852.6    0.00 
 110    2:20   0.00   47.8    24   10.2   349     16   852.6    0.00 
 110    2:30   0.00   47.8    25    5.0   329     12   852.9    0.00 
 110    2:40   0.00   47.2    25    4.7   344      9   853.0    0.00 
 110    2:50   0.00   47.2    25    6.0   351     10   853.1    0.00 
 110    3:00   0.00   46.5    25    7.0   343     11   853.1    0.00 
 110    3:10   0.00   46.2    25    8.6   345     12   853.1    0.00 
 110    3:20   0.00   46.5    25    8.0   348     12   853.1    0.00 
 110    3:30   0.00   47.0    26    6.3   350      9   853.2    0.00 
 110    3:40   0.00   46.3    26    3.9    14      7   853.2    0.00 
 110    3:50   0.00   45.2    28    3.0   356      5   853.2    0.00 
 110    4:00   0.00   46.1    31    4.7   355      8   853.2    0.00 
 110    4:10   0.00   46.0    32    5.5   342      8   853.2    0.00 
 110    4:20   0.00   44.8    29    6.0   343     10   853.3    0.00 
 110    4:30   0.00   45.0    32    2.9   351      8   853.4    0.00 
 110    4:40   0.00   44.5    34    2.8   341      6   853.4    0.00 
 110    4:50   0.00   44.1    31    2.6   324      5   853.4    0.00 
 110    5:00   0.00   43.4    30    2.2   312      5   853.5    0.00 
 110    5:10   0.00   43.0    30    2.4   303      5   853.6    0.00 
 110    5:20   0.00   42.2    31    3.8   320      6   853.7    0.00 
 110    5:30   0.01   43.8    30    3.3   322      6   853.7    0.00 
 110    5:40   0.02   44.9    29    2.6   328      4   853.9    0.00 
 110    5:50   0.04   45.2    29    2.2   322      4   854.0    0.00 
 110    6:00   0.07   45.5    29    2.9   334      5   854.1    0.00 
 110    6:10   0.10   45.9    30    3.1   342      5   854.1    0.00 
 110    6:20   0.13   46.2    31    2.2    36      4   854.2    0.00 
 110    6:30   0.16   45.8    31    1.9    46      3   854.3    0.00 
 110    6:40   0.16   47.3    30    3.4     2      8   854.4    0.00 
 110    6:50   0.20   47.2    30    4.8   358      9   854.5    0.00 
 110    7:00   0.23   48.0    30    3.1    30      7   854.7    0.00 
 110    7:10   0.27   47.9    29    2.1    96      4   854.8    0.00 
 110    7:20   0.33   49.3    29    0.7    67      3   854.8    0.00 
 110    7:30   0.34   49.7    29    1.4   177      3   854.8    0.00 
 110    7:40   0.39   50.2    28    1.7   163      3   854.7    0.00 
 110    7:50   0.40   50.5    28    2.3   133      4   854.7    0.00 
 110    8:00   0.44   50.9    28    2.1   157      4   854.8    0.00 
 110    8:10   0.49   52.2    28    1.8   152      3   854.7    0.00 
 110    8:20   0.52   53.3    27    2.0   124      5   854.6    0.00 
 110    8:30   0.54   53.2    30    3.7   126      8   854.6    0.00 
 110    8:40   0.58   54.5    28    3.5   145      7   854.6    0.00 
 110    8:50   0.61   54.3    32    3.2   113      9   854.7    0.00 
 110    9:00   0.65   54.5    31    3.2   133      8   854.8    0.00 
 110    9:10   0.65   55.3    31    4.3   132      9   854.9    0.00 
 110    9:20   0.69   55.0    32    4.6   128     10   854.8    0.00 
 110    9:30   0.72   56.2    31    3.4   108      7   854.8    0.00 
 110    9:40   0.74   56.1    31    4.4   116      8   854.7    0.00 
 110    9:50   0.77   56.6    29    5.3   124     10   854.7    0.00 
 110   10:00   0.79   57.6    26    3.0   145      7   854.7    0.00 
 110   10:10   0.82   57.4    26    4.1    97     10   854.6    0.00 
 110   10:20   0.84   57.8    25    4.0   123      9   854.5    0.00 
 110   10:30   0.85   60.0    22    2.3   136      7   854.4    0.00 
 110   10:40   0.88   59.9    21    3.1   118      8   854.4    0.00 
 110   10:50   0.81   61.1    19    1.5   135      4   854.3    0.00 
 110   11:00   0.93   61.7    18    2.6   180      6   854.2    0.00 
 110   11:10   0.92   61.4    18    3.5   102      7   854.1    0.00 
 110   11:20   0.88   61.2    18    3.4   103      7   854.0    0.00 
 110   11:30   0.94   63.0    15    4.9   129     11   853.8    0.00 
 110   11:40   0.91   63.3    13    4.2   158      8   853.7    0.00 
 110   11:50   0.92   63.5    13    2.6   124      6   853.7    0.00 
 110   12:00   0.94   65.0    13    3.4   172      9   853.6    0.00 
 110   12:10   0.93   65.4    12    3.1   161      8   853.5    0.00 
 110   12:20   0.94   64.3    13    4.1   222      9   853.3    0.00 
 110   12:30   0.92   64.7    14    4.8   219     10   853.2    0.00 
 110   12:40   0.93   66.0    12    3.7   154      8   853.2    0.00 
 110   12:50   0.92   65.5    13    5.3   140     12   853.1    0.00 
 110   13:00   0.90   67.3    12    3.2   170      7   853.1    0.00 
 110   13:10   0.89   66.6    12    4.8   207     10   852.9    0.00 
 110   13:20   0.88   66.7    12    2.1   224      6   852.8    0.00 
 110   13:30   0.86   67.4    11    2.7    34      6   852.7    0.00 
 110   13:40   0.86   66.8    10    3.0    34      6   852.6    0.00 
 110   13:50   0.84   66.6    11    3.0   108      9   852.5    0.00 
 110   14:00   0.82   67.0    10    3.6   111      9   852.3    0.00 
 110   14:10   0.80   67.0    10    5.0    73      9   852.2    0.00 
 110   14:20   0.78   67.7     9    4.9    83      9   852.2    0.00 
 110   14:30   0.76   68.7     8    3.8    89      9   852.1    0.00 
 110   14:40   0.73   68.4     8    4.6    38      9   852.0    0.00 
 110   14:50   0.71   68.4     8    5.1    73     11   851.8    0.00 
 110   15:00   0.68   68.5     8    4.9   114      9   851.8    0.00 
 110   15:10   0.65   68.8     8    4.5    48     10   851.7    0.00 
 110   15:20   0.62   69.0     8    4.8   108     10   851.6    0.00 
 110   15:30   0.58   69.2     8    4.3    32      8   851.6    0.00 
 110   15:40   0.18   67.7     9    2.5    19      6   851.5    0.00 
 110   15:50   0.17   67.2     9    4.9   116      9   851.5    0.00 
 110   16:00   0.18   67.7    10    2.7   116      6   851.5    0.00 
 110   16:10   0.52   68.8     8    4.1    88     10   851.5    0.00 
 110   16:20   0.36   68.2     9    5.5   107     10   851.5    0.00 
 110   16:30   0.18   67.4     9    3.6   146      8   851.4    0.00 
 110   16:40   0.38   69.0     9    3.3   142      6   851.4    0.00 
 110   16:50   0.22   68.8     9    2.7   122      6   851.3    0.00 
 110   17:00   0.25   68.5    10    2.3    47      6   851.3    0.00 
 110   17:10   0.26   68.8    10    3.4    79      8   851.4    0.00 
 110   17:20   0.22   68.1    10    5.8    28     11   851.4    0.00 
 110   17:30   0.19   67.4    11    8.5    40     13   851.3    0.00 
 110   17:40   0.13   67.0    11    8.6    27     14   851.3    0.00 
 110   17:50   0.08   65.9    13   10.5    30     14   851.3    0.00 
 110   18:00   0.05   65.4    14    8.6    20     12   851.3    0.00 
 110   18:10   0.07   64.8    15    9.3    18     14   851.3    0.00 
 110   18:20   0.03   63.9    17    9.1    15     14   851.4    0.00 
 110   18:30   0.02   63.2    17    9.2    17     14   851.4    0.00 
 110   18:40   0.01   62.6    17   11.2    21     16   851.4    0.00 
 110   18:50   0.00   62.0    16   10.2    20     16   851.5    0.00 
 110   19:00   0.00   61.8    17    9.1    16     15   851.6    0.00 
 110   19:10   0.00   61.6    17    8.2    21     12   851.7    0.00 
 110   19:20   0.00   61.4    17    7.7     9     13   851.8    0.00 
 110   19:30   0.00   60.7    18    7.5   338     12   852.0    0.00 
 110   19:40   0.00   60.4    18    8.9   345     13   852.0    0.00 
 110   19:50   0.00   60.2    17    9.7   351     13   852.2    0.00 
 110   20:00   0.00   60.1    17    7.9   347     13   852.2    0.00 
 110   20:10   0.00   59.5    18    9.1   348     13   852.3    0.00 
 110   20:20   0.00   59.7    17    9.7   348     13   852.3    0.00 
 110   20:30   0.00   59.7    17    8.7   347     12   852.4    0.00 
 110   20:40   0.00   59.1    18    8.3   345     11   852.5    0.00 
 110   20:50   0.00   59.1    18    7.9   344     11   852.4    0.00 
 110   21:00   0.00   58.7    18    3.3    29      8   852.5    0.00 
 110   21:10   0.00   58.8    18    1.8   356      3   852.5    0.00 
 110   21:20   0.00   57.6    19    1.9   315      3   852.5    0.00 
 110   21:30   0.00   57.1    19    3.2   333      4   852.4    0.00 
 110   21:40   0.00   58.0    19    1.4   322      3   852.3    0.00 
 110   21:50   0.00   58.2    19    0.7   269      1   852.2    0.00 
 110   22:00   0.00   57.0    20    0.7   235      1   852.2    0.00 
 110   22:10   0.00   57.0    20    1.5   293      2   852.3    0.00 
 110   22:20   0.00   56.8    20    1.8   301      3   852.3    0.00 
 110   22:30   0.00   57.1    19    2.0   312      3   852.2    0.00 
 110   22:40   0.00   56.9    20    2.2   306      3   852.2    0.00 
 110   22:50   0.00   57.6    19    1.8   300      3   852.1    0.00 
 110   23:00   0.00   57.5    19    1.5   288      3   852.2    0.00 
 110   23:10   0.00   57.0    20    1.0   252      2   852.1    0.00 

Return to NNSC graphs page.


Western Regional Climate Center,wrcc@dri.edu